sensor_id;sensor_type;location;lat;lon;timestamp;pressure;altitude;pressure_sealevel;temperature;humidity
46007;BME280;31738;50.188;8.524;2023-05-13T00:00:44;99094.66;;;14.68;74.75
46007;BME280;31738;50.188;8.524;2023-05-13T00:03:10;99095.72;;;14.67;74.62
46007;BME280;31738;50.188;8.524;2023-05-13T00:05:36;99086.53;;;14.68;75.18
46007;BME280;31738;50.188;8.524;2023-05-13T00:08:01;99077.91;;;14.66;75.23
46007;BME280;31738;50.188;8.524;2023-05-13T00:10:31;99089.81;;;14.65;74.71
46007;BME280;31738;50.188;8.524;2023-05-13T00:12:57;99084.63;;;14.69;74.22
46007;BME280;31738;50.188;8.524;2023-05-13T00:15:22;99083.75;;;14.73;74.08
46007;BME280;31738;50.188;8.524;2023-05-13T00:17:48;99084.56;;;14.74;74.31
46007;BME280;31738;50.188;8.524;2023-05-13T00:20:13;99081.03;;;14.73;73.89
46007;BME280;31738;50.188;8.524;2023-05-13T00:22:38;99083.16;;;14.76;73.81
46007;BME280;31738;50.188;8.524;2023-05-13T00:25:04;99093.97;;;14.76;74.22
46007;BME280;31738;50.188;8.524;2023-05-13T00:27:29;99093.97;;;14.76;74.40
46007;BME280;31738;50.188;8.524;2023-05-13T00:29:57;99097.78;;;14.75;75.39
46007;BME280;31738;50.188;8.524;2023-05-13T00:32:24;99098.41;;;14.67;76.29
46007;BME280;31738;50.188;8.524;2023-05-13T00:34:49;99088.78;;;14.61;76.26
46007;BME280;31738;50.188;8.524;2023-05-13T00:37:15;99096.88;;;14.61;76.04
46007;BME280;31738;50.188;8.524;2023-05-13T00:39:41;99084.50;;;14.60;76.10
46007;BME280;31738;50.188;8.524;2023-05-13T00:42:06;99084.19;;;14.62;75.49
46007;BME280;31738;50.188;8.524;2023-05-13T00:44:32;99077.91;;;14.66;75.71
46007;BME280;31738;50.188;8.524;2023-05-13T00:46:58;99084.91;;;14.67;75.60
46007;BME280;31738;50.188;8.524;2023-05-13T00:49:23;99085.97;;;14.71;74.77
46007;BME280;31738;50.188;8.524;2023-05-13T00:51:49;99078.34;;;14.73;75.05
46007;BME280;31738;50.188;8.524;2023-05-13T00:54:16;99085.97;;;14.71;74.64
46007;BME280;31738;50.188;8.524;2023-05-13T00:56:42;99084.34;;;14.70;74.57
46007;BME280;31738;50.188;8.524;2023-05-13T00:59:08;99087.84;;;14.71;74.66
46007;BME280;31738;50.188;8.524;2023-05-13T01:01:42;99087.13;;;14.65;74.05
46007;BME280;31738;50.188;8.524;2023-05-13T01:04:42;99088.13;;;14.69;73.87
46007;BME280;31738;50.188;8.524;2023-05-13T01:10:25;99095.28;;;14.60;74.76
46007;BME280;31738;50.188;8.524;2023-05-13T01:12:58;99101.25;;;14.57;75.25
46007;BME280;31738;50.188;8.524;2023-05-13T01:15:25;99096.88;;;14.61;74.34
46007;BME280;31738;50.188;8.524;2023-05-13T01:18:05;99101.69;;;14.64;74.32
46007;BME280;31738;50.188;8.524;2023-05-13T01:20:33;99096.09;;;14.61;74.17
46007;BME280;31738;50.188;8.524;2023-05-13T01:22:59;99100.91;;;14.64;74.14
46007;BME280;31738;50.188;8.524;2023-05-13T01:25:24;99095.50;;;14.64;74.21
46007;BME280;31738;50.188;8.524;2023-05-13T01:27:51;99097.41;;;14.63;73.17
46007;BME280;31738;50.188;8.524;2023-05-13T01:30:19;99103.31;;;14.65;73.22
46007;BME280;31738;50.188;8.524;2023-05-13T01:32:45;99106.53;;;14.67;72.75
46007;BME280;31738;50.188;8.524;2023-05-13T01:35:11;99101.63;;;14.69;73.07
46007;BME280;31738;50.188;8.524;2023-05-13T01:37:41;99111.91;;;14.67;73.12
46007;BME280;31738;50.188;8.524;2023-05-13T01:40:08;99106.53;;;14.67;72.76
46007;BME280;31738;50.188;8.524;2023-05-13T01:42:34;99110.03;;;14.68;72.52
46007;BME280;31738;50.188;8.524;2023-05-13T01:45:01;99108.63;;;14.70;71.78
46007;BME280;31738;50.188;8.524;2023-05-13T01:47:27;99112.97;;;14.71;71.61
46007;BME280;31738;50.188;8.524;2023-05-13T01:49:53;99122.94;;;14.71;71.34
46007;BME280;31738;50.188;8.524;2023-05-13T01:52:18;99121.56;;;14.73;70.88
46007;BME280;31738;50.188;8.524;2023-05-13T01:54:44;99125.88;;;14.74;70.93
46007;BME280;31738;50.188;8.524;2023-05-13T01:57:12;99122.38;;;14.74;70.84
46007;BME280;31738;50.188;8.524;2023-05-13T01:59:38;99127.25;;;14.72;70.67
46007;BME280;31738;50.188;8.524;2023-05-13T02:02:03;99128.34;;;14.71;70.11
46007;BME280;31738;50.188;8.524;2023-05-13T02:04:29;99128.06;;;14.72;70.20
46007;BME280;31738;50.188;8.524;2023-05-13T02:06:55;99136.16;;;14.72;69.77
46007;BME280;31738;50.188;8.524;2023-05-13T02:09:21;99136.16;;;14.72;70.49
46007;BME280;31738;50.188;8.524;2023-05-13T02:11:47;99141.03;;;14.70;70.30
46007;BME280;31738;50.188;8.524;2023-05-13T02:14:14;99137.56;;;14.70;70.16
46007;BME280;31738;50.188;8.524;2023-05-13T02:16:39;99132.44;;;14.68;71.34
46007;BME280;31738;50.188;8.524;2023-05-13T02:19:05;99126.53;;;14.66;72.48
46007;BME280;31738;50.188;8.524;2023-05-13T02:21:31;99131.97;;;14.61;71.93
46007;BME280;31738;50.188;8.524;2023-05-13T02:23:57;99129.88;;;14.58;71.56
46007;BME280;31738;50.188;8.524;2023-05-13T02:26:22;99125.56;;;14.57;71.44
46007;BME280;31738;50.188;8.524;2023-05-13T02:28:48;99132.31;;;14.55;71.86
46007;BME280;31738;50.188;8.524;2023-05-13T02:31:14;99122.41;;;14.50;72.04
46007;BME280;31738;50.188;8.524;2023-05-13T02:33:41;99119.78;;;14.45;72.54
46007;BME280;31738;50.188;8.524;2023-05-13T02:36:07;99110.94;;;14.40;72.54
46007;BME280;31738;50.188;8.524;2023-05-13T02:38:33;99109.63;;;14.37;72.59
46007;BME280;31738;50.188;8.524;2023-05-13T02:41:00;99100.75;;;14.32;72.94
46007;BME280;31738;50.188;8.524;2023-05-13T02:43:26;99110.25;;;14.29;72.57
46007;BME280;31738;50.188;8.524;2023-05-13T02:45:56;99105.66;;;14.30;72.64
46007;BME280;31738;50.188;8.524;2023-05-13T02:48:22;99101.03;;;14.30;72.81
46007;BME280;31738;50.188;8.524;2023-05-13T02:50:49;99105.66;;;14.30;72.34
46007;BME280;31738;50.188;8.524;2023-05-13T02:53:14;99103.25;;;14.28;72.77
46007;BME280;31738;50.188;8.524;2023-05-13T02:55:46;99099.22;;;14.26;73.36
46007;BME280;31738;50.188;8.524;2023-05-13T02:58:12;99103.56;;;14.22;74.13
46007;BME280;31738;50.188;8.524;2023-05-13T03:00:37;99090.94;;;14.17;74.13
46007;BME280;31738;50.188;8.524;2023-05-13T03:03:03;99091.50;;;14.14;74.42
46007;BME280;31738;50.188;8.524;2023-05-13T03:05:29;99086.69;;;14.11;73.82
46007;BME280;31738;50.188;8.524;2023-05-13T03:07:54;99089.91;;;14.13;73.42
46007;BME280;31738;50.188;8.524;2023-05-13T03:10:22;99095.81;;;14.15;73.16
46007;BME280;31738;50.188;8.524;2023-05-13T03:12:47;99094.72;;;14.16;72.91
46007;BME280;31738;50.188;8.524;2023-05-13T03:15:13;99095.81;;;14.15;72.48
46007;BME280;31738;50.188;8.524;2023-05-13T03:17:41;99103.91;;;14.15;72.61
46007;BME280;31738;50.188;8.524;2023-05-13T03:20:09;99109.28;;;14.15;72.45
46007;BME280;31738;50.188;8.524;2023-05-13T03:22:36;99113.09;;;14.14;72.87
46007;BME280;31738;50.188;8.524;2023-05-13T03:25:05;99113.44;;;14.08;73.06
46007;BME280;31738;50.188;8.524;2023-05-13T03:27:38;99115.09;;;14.04;72.77
46007;BME280;31738;50.188;8.524;2023-05-13T03:30:05;99114.00;;;14.05;72.78
46007;BME280;31738;50.188;8.524;2023-05-13T03:32:32;99117.81;;;14.04;72.38
46007;BME280;31738;50.188;8.524;2023-05-13T03:34:58;99120.22;;;14.05;72.95
46007;BME280;31738;50.188;8.524;2023-05-13T03:37:26;99116.97;;;14.03;73.31
46007;BME280;31738;50.188;8.524;2023-05-13T03:39:51;99128.34;;;14.00;73.35
46007;BME280;31738;50.188;8.524;2023-05-13T03:42:17;99127.53;;;14.00;73.63
46007;BME280;31738;50.188;8.524;2023-05-13T03:44:43;99132.72;;;13.96;73.61
46007;BME280;31738;50.188;8.524;2023-05-13T03:47:10;99133.28;;;13.93;73.59
46007;BME280;31738;50.188;8.524;2023-05-13T03:49:36;99126.84;;;13.89;73.64
46007;BME280;31738;50.188;8.524;2023-05-13T03:52:02;99120.13;;;13.87;73.29
46007;BME280;31738;50.188;8.524;2023-05-13T03:54:27;99122.00;;;13.86;72.97
46007;BME280;31738;50.188;8.524;2023-05-13T03:56:53;99117.19;;;13.83;73.20
46007;BME280;31738;50.188;8.524;2023-05-13T03:59:18;99122.59;;;13.83;72.88
46007;BME280;31738;50.188;8.524;2023-05-13T04:01:44;99117.16;;;13.88;72.65
46007;BME280;31738;50.188;8.524;2023-05-13T04:04:09;99122.78;;;13.92;72.12
46007;BME280;31738;50.188;8.524;2023-05-13T04:06:35;99128.69;;;13.94;72.24
46007;BME280;31738;50.188;8.524;2023-05-13T04:09:02;99125.69;;;13.95;71.69
46007;BME280;31738;50.188;8.524;2023-05-13T04:11:29;99132.16;;;13.99;71.32
46007;BME280;31738;50.188;8.524;2023-05-13T04:13:56;99134.56;;;14.01;70.85
46007;BME280;31738;50.188;8.524;2023-05-13T04:16:21;99138.56;;;14.03;70.99
46007;BME280;31738;50.188;8.524;2023-05-13T04:18:47;99144.78;;;14.04;70.39
46007;BME280;31738;50.188;8.524;2023-05-13T04:21:12;99143.38;;;14.06;70.41
46007;BME280;31738;50.188;8.524;2023-05-13T04:23:37;99146.09;;;14.06;69.98
46007;BME280;31738;50.188;8.524;2023-05-13T04:26:03;99143.38;;;14.06;70.08
46007;BME280;31738;50.188;8.524;2023-05-13T04:28:28;99152.00;;;14.08;69.99
46007;BME280;31738;50.188;8.524;2023-05-13T04:30:54;99154.72;;;14.08;69.83
46007;BME280;31738;50.188;8.524;2023-05-13T04:33:19;99156.84;;;14.11;69.69
46007;BME280;31738;50.188;8.524;2023-05-13T04:35:47;99154.66;;;14.13;69.16
46007;BME280;31738;50.188;8.524;2023-05-13T04:38:12;99155.69;;;14.17;69.01
46007;BME280;31738;50.188;8.524;2023-05-13T04:40:38;99160.50;;;14.20;68.46
46007;BME280;31738;50.188;8.524;2023-05-13T04:43:13;99169.38;;;14.26;68.31
46007;BME280;31738;50.188;8.524;2023-05-13T04:45:46;99173.16;;;14.25;67.69
46007;BME280;31738;50.188;8.524;2023-05-13T04:48:12;99178.81;;;14.28;67.79
46007;BME280;31738;50.188;8.524;2023-05-13T04:50:38;99182.00;;;14.30;67.85
46007;BME280;31738;50.188;8.524;2023-05-13T04:53:03;99187.94;;;14.32;67.65
46007;BME280;31738;50.188;8.524;2023-05-13T04:55:29;99184.66;;;14.35;66.61
46007;BME280;31738;50.188;8.524;2023-05-13T04:57:55;99189.47;;;14.38;66.17
46007;BME280;31738;50.188;8.524;2023-05-13T05:00:20;99189.72;;;14.42;67.55
46007;BME280;31738;50.188;8.524;2023-05-13T05:02:48;99191.31;;;14.43;67.04
46007;BME280;31738;50.188;8.524;2023-05-13T05:05:13;99193.72;;;14.44;66.50
46007;BME280;31738;50.188;8.524;2023-05-13T05:07:39;99198.56;;;14.47;67.06
46007;BME280;31738;50.188;8.524;2023-05-13T05:10:07;99194.78;;;14.48;66.73
46007;BME280;31738;50.188;8.524;2023-05-13T05:12:35;99198.28;;;14.49;66.23
46007;BME280;31738;50.188;8.524;2023-05-13T05:15:03;99200.38;;;14.52;67.58
46007;BME280;31738;50.188;8.524;2023-05-13T05:17:29;99205.78;;;14.52;67.38
46007;BME280;31738;50.188;8.524;2023-05-13T05:19:59;99210.63;;;14.55;66.55
46007;BME280;31738;50.188;8.524;2023-05-13T05:22:25;99222.19;;;14.60;65.35
46007;BME280;31738;50.188;8.524;2023-05-13T05:24:51;99214.53;;;14.67;64.91
46007;BME280;31738;50.188;8.524;2023-05-13T05:27:16;99212.88;;;14.71;65.76
46007;BME280;31738;50.188;8.524;2023-05-13T05:29:44;99222.81;;;14.76;66.12
46007;BME280;31738;50.188;8.524;2023-05-13T05:32:10;99232.22;;;14.78;66.86
46007;BME280;31738;50.188;8.524;2023-05-13T05:34:36;99221.94;;;14.80;67.42
46007;BME280;31738;50.188;8.524;2023-05-13T05:37:01;99222.44;;;14.82;68.05
46007;BME280;31738;50.188;8.524;2023-05-13T05:39:28;99221.88;;;14.85;67.64
46007;BME280;31738;50.188;8.524;2023-05-13T05:41:53;99221.31;;;14.88;66.71
46007;BME280;31738;50.188;8.524;2023-05-13T05:44:19;99225.56;;;14.94;65.39
46007;BME280;31738;50.188;8.524;2023-05-13T05:46:44;99226.56;;;14.98;65.48
46007;BME280;31738;50.188;8.524;2023-05-13T05:49:10;99234.09;;;15.01;64.96
46007;BME280;31738;50.188;8.524;2023-05-13T05:51:36;99236.75;;;15.06;64.75
46007;BME280;31738;50.188;8.524;2023-05-13T05:54:02;99238.28;;;15.12;64.60
46007;BME280;31738;50.188;8.524;2023-05-13T05:56:29;99233.91;;;15.16;65.00
46007;BME280;31738;50.188;8.524;2023-05-13T05:58:54;99247.13;;;15.18;64.61
46007;BME280;31738;50.188;8.524;2023-05-13T06:01:20;99247.34;;;15.21;64.96
46007;BME280;31738;50.188;8.524;2023-05-13T06:03:46;99246.19;;;15.27;64.70
46007;BME280;31738;50.188;8.524;2023-05-13T06:06:11;99250.44;;;15.33;65.00
46007;BME280;31738;50.188;8.524;2023-05-13T06:08:37;99254.69;;;15.39;63.83
46007;BME280;31738;50.188;8.524;2023-05-13T06:11:02;99251.34;;;15.48;64.32
46007;BME280;31738;50.188;8.524;2023-05-13T06:13:27;99255.59;;;15.54;64.03
46007;BME280;31738;50.188;8.524;2023-05-13T06:15:53;99260.63;;;15.60;64.05
46007;BME280;31738;50.188;8.524;2023-05-13T06:18:19;99264.06;;;15.66;64.06
46007;BME280;31738;50.188;8.524;2023-05-13T06:20:45;99267.81;;;15.70;64.26
46007;BME280;31738;50.188;8.524;2023-05-13T06:23:11;99261.50;;;15.74;65.34
46007;BME280;31738;50.188;8.524;2023-05-13T06:25:38;99262.75;;;15.82;64.35
46007;BME280;31738;50.188;8.524;2023-05-13T06:28:05;99266.38;;;15.91;64.14
46007;BME280;31738;50.188;8.524;2023-05-13T06:30:32;99271.91;;;15.99;63.83
46007;BME280;31738;50.188;8.524;2023-05-13T06:32:58;99275.84;;;16.07;63.29
46007;BME280;31738;50.188;8.524;2023-05-13T06:35:23;99271.66;;;16.14;62.61
46007;BME280;31738;50.188;8.524;2023-05-13T06:37:49;99270.69;;;16.24;63.09
46007;BME280;31738;50.188;8.524;2023-05-13T06:40:14;99270.25;;;16.35;61.92
46007;BME280;31738;50.188;8.524;2023-05-13T06:42:42;99274.94;;;16.43;61.87
46007;BME280;31738;50.188;8.524;2023-05-13T06:45:19;99271.59;;;16.51;62.09
46007;BME280;31738;50.188;8.524;2023-05-13T06:47:49;99271.22;;;16.58;63.48
46007;BME280;31738;50.188;8.524;2023-05-13T06:50:15;99278.44;;;16.62;61.97
46007;BME280;31738;50.188;8.524;2023-05-13T06:52:41;99272.63;;;16.69;62.32
46007;BME280;31738;50.188;8.524;2023-05-13T06:55:06;99271.44;;;16.75;61.96
46007;BME280;31738;50.188;8.524;2023-05-13T06:57:33;99276.47;;;16.81;62.60
46007;BME280;31738;50.188;8.524;2023-05-13T06:59:59;99269.84;;;16.87;61.56
46007;BME280;31738;50.188;8.524;2023-05-13T07:02:25;99272.63;;;16.96;60.79
46007;BME280;31738;50.188;8.524;2023-05-13T07:04:51;99280.75;;;17.09;59.14
46007;BME280;31738;50.188;8.524;2023-05-13T07:07:16;99282.25;;;17.16;59.63
46007;BME280;31738;50.188;8.524;2023-05-13T07:09:42;99280.66;;;17.28;61.14
46007;BME280;31738;50.188;8.524;2023-05-13T07:12:07;99281.44;;;17.42;60.97
46007;BME280;31738;50.188;8.524;2023-05-13T07:14:35;99275.03;;;17.52;62.09
46007;BME280;31738;50.188;8.524;2023-05-13T07:17:01;99274.09;;;17.56;62.49
46007;BME280;31738;50.188;8.524;2023-05-13T07:19:31;99273.78;;;17.58;62.49
46007;BME280;31738;50.188;8.524;2023-05-13T07:21:56;99282.25;;;17.56;61.68
46007;BME280;31738;50.188;8.524;2023-05-13T07:24:22;99281.22;;;17.52;61.30
46007;BME280;31738;50.188;8.524;2023-05-13T07:26:48;99284.84;;;17.61;61.85
46007;BME280;31738;50.188;8.524;2023-05-13T07:29:13;99272.31;;;17.74;62.12
46007;BME280;31738;50.188;8.524;2023-05-13T07:31:39;99277.22;;;17.85;61.83
46007;BME280;31738;50.188;8.524;2023-05-13T07:34:04;99265.19;;;18.00;62.00
46007;BME280;31738;50.188;8.524;2023-05-13T07:36:30;99270.19;;;18.06;60.89
46007;BME280;31738;50.188;8.524;2023-05-13T07:38:55;99278.44;;;18.01;58.67
46007;BME280;31738;50.188;8.524;2023-05-13T07:41:21;99273.41;;;18.08;59.39
46007;BME280;31738;50.188;8.524;2023-05-13T07:43:46;99282.03;;;18.10;57.63
46007;BME280;31738;50.188;8.524;2023-05-13T07:46:12;99295.56;;;18.24;58.15
46007;BME280;31738;50.188;8.524;2023-05-13T07:48:37;99295.81;;;18.36;57.92
46007;BME280;31738;50.188;8.524;2023-05-13T07:51:03;99299.59;;;18.48;57.10
46007;BME280;31738;50.188;8.524;2023-05-13T07:53:29;99298.81;;;18.56;57.87
46007;BME280;31738;50.188;8.524;2023-05-13T07:55:54;99299.06;;;18.68;57.69
46007;BME280;31738;50.188;8.524;2023-05-13T07:58:20;99308.84;;;18.78;57.11
46007;BME280;31738;50.188;8.524;2023-05-13T08:00:46;99309.03;;;18.82;55.86
46007;BME280;31738;50.188;8.524;2023-05-13T08:03:13;99314.28;;;18.78;57.08
46007;BME280;31738;50.188;8.524;2023-05-13T08:05:40;99319.94;;;18.59;55.15
46007;BME280;31738;50.188;8.524;2023-05-13T08:08:05;99332.19;;;18.48;55.39
46007;BME280;31738;50.188;8.524;2023-05-13T08:10:31;99331.53;;;18.29;55.53
46007;BME280;31738;50.188;8.524;2023-05-13T08:12:56;99333.34;;;18.12;56.04
46007;BME280;31738;50.188;8.524;2023-05-13T08:15:22;99337.41;;;18.01;57.04
46007;BME280;31738;50.188;8.524;2023-05-13T08:17:48;99336.84;;;17.90;57.05
46007;BME280;31738;50.188;8.524;2023-05-13T08:20:13;99328.19;;;17.88;57.88
46007;BME280;31738;50.188;8.524;2023-05-13T08:22:39;99328.81;;;17.85;58.08
46007;BME280;31738;50.188;8.524;2023-05-13T08:25:05;99313.91;;;17.83;58.73
46007;BME280;31738;50.188;8.524;2023-05-13T08:27:33;99321.56;;;17.81;58.74
46007;BME280;31738;50.188;8.524;2023-05-13T08:29:58;99314.97;;;17.73;57.90
46007;BME280;31738;50.188;8.524;2023-05-13T08:32:24;99313.84;;;17.74;58.83
46007;BME280;31738;50.188;8.524;2023-05-13T08:34:49;99310.00;;;17.75;59.88
46007;BME280;31738;50.188;8.524;2023-05-13T08:37:15;99307.59;;;17.74;58.99
46007;BME280;31738;50.188;8.524;2023-05-13T08:39:41;99302.69;;;17.76;58.96
46007;BME280;31738;50.188;8.524;2023-05-13T08:42:07;99303.06;;;17.83;58.60
46007;BME280;31738;50.188;8.524;2023-05-13T08:44:36;99299.00;;;17.94;59.42
46007;BME280;31738;50.188;8.524;2023-05-13T08:49:36;99301.84;;;18.33;57.60
46007;BME280;31738;50.188;8.524;2023-05-13T08:52:02;99296.09;;;18.56;56.10
46007;BME280;31738;50.188;8.524;2023-05-13T08:54:28;99308.06;;;18.78;56.45
46007;BME280;31738;50.188;8.524;2023-05-13T08:56:54;99306.25;;;19.04;54.35
46007;BME280;31738;50.188;8.524;2023-05-13T08:59:20;99304.06;;;19.23;55.44
46007;BME280;31738;50.188;8.524;2023-05-13T09:01:49;99311.19;;;19.41;55.59
46007;BME280;31738;50.188;8.524;2023-05-13T09:04:18;99311.84;;;19.55;54.88
46007;BME280;31738;50.188;8.524;2023-05-13T09:06:46;99314.28;;;19.65;53.71
46007;BME280;31738;50.188;8.524;2023-05-13T09:09:12;99330.31;;;19.75;53.56
46007;BME280;31738;50.188;8.524;2023-05-13T09:11:38;99307.59;;;19.88;53.70
46007;BME280;31738;50.188;8.524;2023-05-13T09:14:04;99315.59;;;20.01;53.92
46007;BME280;31738;50.188;8.524;2023-05-13T09:16:31;99312.72;;;20.15;54.03
46007;BME280;31738;50.188;8.524;2023-05-13T09:19:05;99323.78;;;20.27;53.68
46007;BME280;31738;50.188;8.524;2023-05-13T09:21:32;99309.34;;;20.35;53.89
46007;BME280;31738;50.188;8.524;2023-05-13T09:24:09;99300.66;;;20.50;53.74
46007;BME280;31738;50.188;8.524;2023-05-13T09:26:36;99305.94;;;20.55;52.92
46007;BME280;31738;50.188;8.524;2023-05-13T09:29:18;99304.59;;;20.78;53.18
46007;BME280;31738;50.188;8.524;2023-05-13T09:31:46;99316.63;;;20.77;52.86
46007;BME280;31738;50.188;8.524;2023-05-13T09:34:14;99316.63;;;20.77;51.53
46007;BME280;31738;50.188;8.524;2023-05-13T09:36:39;99340.66;;;20.84;49.81
46007;BME280;31738;50.188;8.524;2023-05-13T09:39:06;99345.50;;;20.78;48.78
46007;BME280;31738;50.188;8.524;2023-05-13T09:41:32;99347.09;;;20.79;48.14
46007;BME280;31738;50.188;8.524;2023-05-13T09:44:01;99345.50;;;20.78;48.96
46007;BME280;31738;50.188;8.524;2023-05-13T09:46:26;99339.03;;;20.91;51.11
46007;BME280;31738;50.188;8.524;2023-05-13T09:48:52;99333.72;;;21.12;51.20
46007;BME280;31738;50.188;8.524;2023-05-13T09:51:26;99341.19;;;21.23;50.28
46007;BME280;31738;50.188;8.524;2023-05-13T09:53:53;99332.16;;;21.31;50.61
46007;BME280;31738;50.188;8.524;2023-05-13T09:56:20;99340.31;;;21.40;49.54
46007;BME280;31738;50.188;8.524;2023-05-13T09:58:50;99352.03;;;21.40;48.28
46007;BME280;31738;50.188;8.524;2023-05-13T10:01:17;99337.53;;;21.48;50.58
46007;BME280;31738;50.188;8.524;2023-05-13T10:03:43;99339.34;;;21.65;50.71
46007;BME280;31738;50.188;8.524;2023-05-13T10:06:09;99332.41;;;21.76;51.08
46007;BME280;31738;50.188;8.524;2023-05-13T10:08:35;99338.41;;;21.90;50.09
46007;BME280;31738;50.188;8.524;2023-05-13T10:11:03;99342.41;;;21.92;49.94
46007;BME280;31738;50.188;8.524;2023-05-13T10:13:30;99321.63;;;22.00;50.22
46007;BME280;31738;50.188;8.524;2023-05-13T10:15:57;99327.28;;;22.16;49.34
46007;BME280;31738;50.188;8.524;2023-05-13T10:18:23;99325.75;;;22.27;49.16
46007;BME280;31738;50.188;8.524;2023-05-13T10:20:49;99325.75;;;22.27;49.31
46007;BME280;31738;50.188;8.524;2023-05-13T10:23:18;99319.41;;;22.35;48.83
46007;BME280;31738;50.188;8.524;2023-05-13T10:25:46;99322.66;;;22.49;49.79
46007;BME280;31738;50.188;8.524;2023-05-13T10:28:13;99334.78;;;22.60;47.72
46007;BME280;31738;50.188;8.524;2023-05-13T10:30:38;99332.41;;;22.70;46.84
46007;BME280;31738;50.188;8.524;2023-05-13T10:33:04;99339.03;;;22.69;46.07
46007;BME280;31738;50.188;8.524;2023-05-13T10:35:32;99335.72;;;22.64;47.08
46007;BME280;31738;50.188;8.524;2023-05-13T10:38:00;99332.09;;;22.72;47.50
46007;BME280;31738;50.188;8.524;2023-05-13T10:40:43;99327.88;;;22.86;48.13
46007;BME280;31738;50.188;8.524;2023-05-13T10:43:15;99317.06;;;22.90;48.96
46007;BME280;31738;50.188;8.524;2023-05-13T10:45:53;99309.78;;;23.06;48.74
46007;BME280;31738;50.188;8.524;2023-05-13T10:48:21;99299.28;;;23.20;48.89
46007;BME280;31738;50.188;8.524;2023-05-13T10:50:56;99293.41;;;23.30;48.52
46007;BME280;31738;50.188;8.524;2023-05-13T10:53:24;99304.09;;;23.35;47.75
46007;BME280;31738;50.188;8.524;2023-05-13T10:55:58;99314.38;;;23.26;45.86
46007;BME280;31738;50.188;8.524;2023-05-13T10:58:28;99303.88;;;23.16;46.98
46007;BME280;31738;50.188;8.524;2023-05-13T11:01:12;99305.81;;;23.27;47.02
46007;BME280;31738;50.188;8.524;2023-05-13T11:03:39;99312.13;;;23.28;46.54
46007;BME280;31738;50.188;8.524;2023-05-13T11:06:21;99298.53;;;23.43;46.70
46007;BME280;31738;50.188;8.524;2023-05-13T11:08:51;99307.53;;;23.56;45.86
46007;BME280;31738;50.188;8.524;2023-05-13T11:11:29;99313.00;;;23.56;44.95
46007;BME280;31738;50.188;8.524;2023-05-13T11:16:24;99323.44;;;22.94;44.72
46007;BME280;31738;50.188;8.524;2023-05-13T11:18:50;99311.78;;;22.73;45.51
46007;BME280;31738;50.188;8.524;2023-05-13T11:21:16;99315.72;;;22.51;46.18
46007;BME280;31738;50.188;8.524;2023-05-13T11:23:54;99324.31;;;22.41;45.31
46007;BME280;31738;50.188;8.524;2023-05-13T11:26:21;99313.22;;;22.26;46.72
46007;BME280;31738;50.188;8.524;2023-05-13T11:31:18;99302.88;;;22.11;46.50
46007;BME280;31738;50.188;8.524;2023-05-13T11:34:20;99300.38;;;22.06;46.73
46007;BME280;31738;50.188;8.524;2023-05-13T11:39:32;99311.81;;;21.78;47.60
46007;BME280;31738;50.188;8.524;2023-05-13T11:41:57;99313.94;;;21.73;48.12
46007;BME280;31738;50.188;8.524;2023-05-13T11:44:26;99295.50;;;21.61;50.20
46007;BME280;31738;50.188;8.524;2023-05-13T11:49:37;99271.69;;;21.21;53.75
46007;BME280;31738;50.188;8.524;2023-05-13T11:52:14;99254.16;;;21.01;54.48
46007;BME280;31738;50.188;8.524;2023-05-13T11:54:51;99242.47;;;20.92;55.70
46007;BME280;31738;50.188;8.524;2023-05-13T11:59:54;99211.91;;;21.28;58.65
46007;BME280;31738;50.188;8.524;2023-05-13T12:02:28;99196.47;;;21.52;57.87
46007;BME280;31738;50.188;8.524;2023-05-13T12:04:54;99191.94;;;21.98;56.66
46007;BME280;31738;50.188;8.524;2023-05-13T12:07:21;99180.88;;;22.39;54.13
46007;BME280;31738;50.188;8.524;2023-05-13T12:09:49;99197.31;;;22.51;53.12
46007;BME280;31738;50.188;8.524;2023-05-13T12:12:15;99199.81;;;22.44;52.60
46007;BME280;31738;50.188;8.524;2023-05-13T12:14:45;99190.91;;;22.35;53.34
46007;BME280;31738;50.188;8.524;2023-05-13T12:17:14;99209.34;;;22.26;52.86
46007;BME280;31738;50.188;8.524;2023-05-13T12:20:21;99203.59;;;22.19;52.63
46007;BME280;31738;50.188;8.524;2023-05-13T12:25:48;99202.16;;;22.21;53.39
46007;BME280;31738;50.188;8.524;2023-05-13T12:28:20;99197.28;;;22.39;52.98
46007;BME280;31738;50.188;8.524;2023-05-13T12:33:25;99199.38;;;22.54;53.25
46007;BME280;31738;50.188;8.524;2023-05-13T12:38:38;99209.81;;;22.40;51.63
46007;BME280;31738;50.188;8.524;2023-05-13T12:41:10;99228.81;;;22.24;50.54
46007;BME280;31738;50.188;8.524;2023-05-13T12:43:36;99246.72;;;22.01;51.50
46007;BME280;31738;50.188;8.524;2023-05-13T12:46:02;99270.88;;;21.49;50.47
46007;BME280;31738;50.188;8.524;2023-05-13T12:48:31;99279.56;;;21.22;51.06
46007;BME280;31738;50.188;8.524;2023-05-13T12:50:57;99306.00;;;20.84;51.53
46007;BME280;31738;50.188;8.524;2023-05-13T12:53:22;99308.88;;;20.42;52.08
46007;BME280;31738;50.188;8.524;2023-05-13T12:55:48;99311.44;;;20.21;52.05
46007;BME280;31738;50.188;8.524;2023-05-13T12:58:14;99314.78;;;19.84;51.70
46007;BME280;31738;50.188;8.524;2023-05-13T13:00:39;99310.25;;;19.54;52.76
46007;BME280;31738;50.188;8.524;2023-05-13T13:03:05;99302.22;;;19.40;53.94
46007;BME280;31738;50.188;8.524;2023-05-13T13:05:31;99309.13;;;19.07;53.59
46007;BME280;31738;50.188;8.524;2023-05-13T13:07:57;99310.81;;;18.86;53.66
46007;BME280;31738;50.188;8.524;2023-05-13T13:10:25;99331.31;;;18.61;53.29
46007;BME280;31738;50.188;8.524;2023-05-13T13:12:51;99292.19;;;18.40;54.60
46007;BME280;31738;50.188;8.524;2023-05-13T13:15:16;99278.03;;;18.30;55.89
46007;BME280;31738;50.188;8.524;2023-05-13T13:17:42;99266.13;;;18.17;57.38
46007;BME280;31738;50.188;8.524;2023-05-13T13:20:07;99249.22;;;18.20;59.04
46007;BME280;31738;50.188;8.524;2023-05-13T13:22:33;99237.72;;;18.23;60.58
46007;BME280;31738;50.188;8.524;2023-05-13T13:25:03;99226.22;;;18.26;61.20
46007;BME280;31738;50.188;8.524;2023-05-13T13:27:29;99211.69;;;18.22;62.15